sensor_id;sensor_type;location;lat;lon;timestamp;pressure;altitude;pressure_sealevel;temperature;humidity
17855;BME280;9053;53.358;6.382;2024-03-25T00:00:02;100447.78;;;8.22;90.86
17855;BME280;9053;53.358;6.382;2024-03-25T00:02:30;100450.34;;;8.21;90.94
17855;BME280;9053;53.358;6.382;2024-03-25T00:04:56;100446.81;;;8.20;91.28
17855;BME280;9053;53.358;6.382;2024-03-25T00:07:22;100453.03;;;8.22;91.55
17855;BME280;9053;53.358;6.382;2024-03-25T00:09:48;100454.84;;;8.25;91.84
17855;BME280;9053;53.358;6.382;2024-03-25T00:12:15;100442.66;;;8.26;91.94
17855;BME280;9053;53.358;6.382;2024-03-25T00:14:41;100445.25;;;8.26;92.11
17855;BME280;9053;53.358;6.382;2024-03-25T00:17:10;100447.00;;;8.25;92.32
17855;BME280;9053;53.358;6.382;2024-03-25T00:19:36;100451.47;;;8.28;92.56
17855;BME280;9053;53.358;6.382;2024-03-25T00:22:03;100449.78;;;8.30;92.56
17855;BME280;9053;53.358;6.382;2024-03-25T00:24:29;100445.44;;;8.30;92.66
17855;BME280;9053;53.358;6.382;2024-03-25T00:26:55;100442.88;;;8.32;92.81
17855;BME280;9053;53.358;6.382;2024-03-25T00:29:21;100443.00;;;8.35;92.76
17855;BME280;9053;53.358;6.382;2024-03-25T00:31:47;100436.97;;;8.37;92.87
17855;BME280;9053;53.358;6.382;2024-03-25T00:34:16;100440.41;;;8.36;92.80
17855;BME280;9053;53.358;6.382;2024-03-25T00:36:43;100442.09;;;8.34;92.56
17855;BME280;9053;53.358;6.382;2024-03-25T00:39:09;100444.66;;;8.33;92.33
17855;BME280;9053;53.358;6.382;2024-03-25T00:41:36;100442.88;;;8.32;91.95
17855;BME280;9053;53.358;6.382;2024-03-25T00:44:02;100441.94;;;8.30;91.36
17855;BME280;9053;53.358;6.382;2024-03-25T00:46:28;100448.00;;;8.29;90.73
17855;BME280;9053;53.358;6.382;2024-03-25T00:48:54;100449.78;;;8.30;90.02
17855;BME280;9053;53.358;6.382;2024-03-25T00:51:23;100444.66;;;8.33;89.29
17855;BME280;9053;53.358;6.382;2024-03-25T00:53:49;100446.44;;;8.34;88.77
17855;BME280;9053;53.358;6.382;2024-03-25T00:56:15;100450.06;;;8.37;88.17
17855;BME280;9053;53.358;6.382;2024-03-25T00:58:41;100453.72;;;8.41;87.84
17855;BME280;9053;53.358;6.382;2024-03-25T01:01:07;100447.69;;;8.43;87.42
17855;BME280;9053;53.358;6.382;2024-03-25T01:03:33;100452.03;;;8.43;87.25
17855;BME280;9053;53.358;6.382;2024-03-25T01:05:59;100446.81;;;8.43;87.02
17855;BME280;9053;53.358;6.382;2024-03-25T01:08:28;100452.03;;;8.43;86.97
17855;BME280;9053;53.358;6.382;2024-03-25T01:10:55;100453.00;;;8.45;86.98
17855;BME280;9053;53.358;6.382;2024-03-25T01:13:21;100450.38;;;8.45;86.99
17855;BME280;9053;53.358;6.382;2024-03-25T01:15:48;100445.06;;;8.43;86.88
17855;BME280;9053;53.358;6.382;2024-03-25T01:18:14;100442.44;;;8.43;86.63
17855;BME280;9053;53.358;6.382;2024-03-25T01:20:40;100444.13;;;8.41;86.25
17855;BME280;9053;53.358;6.382;2024-03-25T01:27:05;100452.69;;;8.37;85.62
17855;BME280;9053;53.358;6.382;2024-03-25T01:29:32;100449.13;;;8.35;85.21
17855;BME280;9053;53.358;6.382;2024-03-25T01:31:58;100449.00;;;8.32;85.01
17855;BME280;9053;53.358;6.382;2024-03-25T01:34:24;100455.03;;;8.30;84.60
17855;BME280;9053;53.358;6.382;2024-03-25T01:36:50;100449.78;;;8.30;84.12
17855;BME280;9053;53.358;6.382;2024-03-25T01:39:16;100454.94;;;8.27;83.65
17855;BME280;9053;53.358;6.382;2024-03-25T01:41:43;100448.78;;;8.26;83.35
17855;BME280;9053;53.358;6.382;2024-03-25T01:44:11;100454.06;;;8.28;83.21
17855;BME280;9053;53.358;6.382;2024-03-25T01:46:38;100451.53;;;8.29;83.23
17855;BME280;9053;53.358;6.382;2024-03-25T01:49:05;100455.06;;;8.31;83.46
17855;BME280;9053;53.358;6.382;2024-03-25T01:51:33;100450.78;;;8.33;83.82
17855;BME280;9053;53.358;6.382;2024-03-25T01:53:59;100450.84;;;8.35;84.03
17855;BME280;9053;53.358;6.382;2024-03-25T01:56:27;100453.50;;;8.36;84.26
17855;BME280;9053;53.358;6.382;2024-03-25T01:58:55;100464.72;;;8.32;84.39
17855;BME280;9053;53.358;6.382;2024-03-25T02:01:24;100469.91;;;8.31;84.37
17855;BME280;9053;53.358;6.382;2024-03-25T02:03:52;100476.00;;;8.30;84.30
17855;BME280;9053;53.358;6.382;2024-03-25T02:06:19;100476.81;;;8.29;84.24
17855;BME280;9053;53.358;6.382;2024-03-25T02:08:46;100481.22;;;8.30;83.91
17855;BME280;9053;53.358;6.382;2024-03-25T02:11:14;100488.22;;;8.29;83.75
17855;BME280;9053;53.358;6.382;2024-03-25T02:13:42;100475.91;;;8.28;83.55
17855;BME280;9053;53.358;6.382;2024-03-25T02:16:08;100477.66;;;8.28;83.36
17855;BME280;9053;53.358;6.382;2024-03-25T02:18:37;100477.66;;;8.28;83.18
17855;BME280;9053;53.358;6.382;2024-03-25T02:21:03;100475.03;;;8.28;83.19
17855;BME280;9053;53.358;6.382;2024-03-25T02:23:30;100468.94;;;8.29;83.16
17855;BME280;9053;53.358;6.382;2024-03-25T02:25:59;100460.28;;;8.30;83.26
17855;BME280;9053;53.358;6.382;2024-03-25T02:28:25;100471.47;;;8.26;83.37
17855;BME280;9053;53.358;6.382;2024-03-25T02:30:51;100468.84;;;8.26;83.43
17855;BME280;9053;53.358;6.382;2024-03-25T02:33:17;100473.03;;;8.20;83.33
17855;BME280;9053;53.358;6.382;2024-03-25T02:35:44;100481.91;;;8.24;83.25
17855;BME280;9053;53.358;6.382;2024-03-25T02:38:11;100478.63;;;8.30;83.24
17855;BME280;9053;53.358;6.382;2024-03-25T02:40:38;100476.81;;;8.29;83.18
17855;BME280;9053;53.358;6.382;2024-03-25T02:43:07;100477.59;;;8.26;82.91
17855;BME280;9053;53.358;6.382;2024-03-25T02:45:33;100468.75;;;8.22;82.50
17855;BME280;9053;53.358;6.382;2024-03-25T02:47:59;100462.53;;;8.20;82.08
17855;BME280;9053;53.358;6.382;2024-03-25T02:50:25;100472.19;;;8.21;81.95
17855;BME280;9053;53.358;6.382;2024-03-25T02:52:52;100479.22;;;8.22;81.73
17855;BME280;9053;53.358;6.382;2024-03-25T02:55:18;100478.38;;;8.23;81.34
17855;BME280;9053;53.358;6.382;2024-03-25T02:57:44;100475.75;;;8.23;81.36
17855;BME280;9053;53.358;6.382;2024-03-25T03:00:14;100472.25;;;8.23;81.25
17855;BME280;9053;53.358;6.382;2024-03-25T03:02:40;100477.47;;;8.23;81.23
17855;BME280;9053;53.358;6.382;2024-03-25T03:05:07;100493.16;;;8.21;81.28
17855;BME280;9053;53.358;6.382;2024-03-25T03:07:33;100484.47;;;8.22;81.33
17855;BME280;9053;53.358;6.382;2024-03-25T03:09:59;100486.19;;;8.22;81.52
17855;BME280;9053;53.358;6.382;2024-03-25T03:12:25;100486.13;;;8.20;81.76
17855;BME280;9053;53.358;6.382;2024-03-25T03:14:51;100489.59;;;8.19;81.97
17855;BME280;9053;53.358;6.382;2024-03-25T03:17:20;100489.44;;;8.16;82.11
17855;BME280;9053;53.358;6.382;2024-03-25T03:19:46;100490.22;;;8.14;82.21
17855;BME280;9053;53.358;6.382;2024-03-25T03:22:12;100494.69;;;8.16;82.29
17855;BME280;9053;53.358;6.382;2024-03-25T03:24:38;100489.22;;;8.10;82.17
17855;BME280;9053;53.358;6.382;2024-03-25T03:27:04;100497.19;;;8.13;81.93
17855;BME280;9053;53.358;6.382;2024-03-25T03:29:31;100501.63;;;8.14;81.53
17855;BME280;9053;53.358;6.382;2024-03-25T03:31:57;100505.91;;;8.12;81.26
17855;BME280;9053;53.358;6.382;2024-03-25T03:34:26;100502.31;;;8.10;81.03
17855;BME280;9053;53.358;6.382;2024-03-25T03:36:52;100504.06;;;8.10;80.90
17855;BME280;9053;53.358;6.382;2024-03-25T03:39:18;100503.09;;;8.08;80.86
17855;BME280;9053;53.358;6.382;2024-03-25T03:41:44;100499.63;;;8.09;80.82
17855;BME280;9053;53.358;6.382;2024-03-25T03:44:11;100499.69;;;8.10;80.86
17855;BME280;9053;53.358;6.382;2024-03-25T03:46:38;100501.47;;;8.11;80.85
17855;BME280;9053;53.358;6.382;2024-03-25T03:49:04;100506.78;;;8.13;80.86
17855;BME280;9053;53.358;6.382;2024-03-25T03:51:33;100508.50;;;8.12;80.89
17855;BME280;9053;53.358;6.382;2024-03-25T03:53:59;100506.84;;;8.14;81.03
17855;BME280;9053;53.358;6.382;2024-03-25T03:56:26;100505.16;;;8.16;81.04
17855;BME280;9053;53.358;6.382;2024-03-25T03:58:52;100509.59;;;8.17;81.15
17855;BME280;9053;53.358;6.382;2024-03-25T04:01:18;100507.97;;;8.21;81.20
17855;BME280;9053;53.358;6.382;2024-03-25T04:03:44;100507.19;;;8.23;81.21
17855;BME280;9053;53.358;6.382;2024-03-25T04:06:12;100507.31;;;8.27;81.27
17855;BME280;9053;53.358;6.382;2024-03-25T04:08:41;100510.75;;;8.26;81.34
17855;BME280;9053;53.358;6.382;2024-03-25T04:11:07;100509.94;;;8.27;81.43
17855;BME280;9053;53.358;6.382;2024-03-25T04:13:34;100514.44;;;8.31;81.58
17855;BME280;9053;53.358;6.382;2024-03-25T04:16:01;100511.00;;;8.32;81.79
17855;BME280;9053;53.358;6.382;2024-03-25T04:18:28;100514.50;;;8.32;81.90
17855;BME280;9053;53.358;6.382;2024-03-25T04:20:54;100515.50;;;8.36;82.10
17855;BME280;9053;53.358;6.382;2024-03-25T04:23:20;100513.94;;;8.39;82.21
17855;BME280;9053;53.358;6.382;2024-03-25T04:25:49;100505.31;;;8.42;82.37
17855;BME280;9053;53.358;6.382;2024-03-25T04:28:15;100515.03;;;8.46;82.46
17855;BME280;9053;53.358;6.382;2024-03-25T04:30:42;100524.72;;;8.47;82.52
17855;BME280;9053;53.358;6.382;2024-03-25T04:33:08;100518.63;;;8.48;82.80
17855;BME280;9053;53.358;6.382;2024-03-25T04:35:34;100527.44;;;8.50;82.86
17855;BME280;9053;53.358;6.382;2024-03-25T04:38:01;100526.56;;;8.50;82.90
17855;BME280;9053;53.358;6.382;2024-03-25T04:40:27;100527.34;;;8.47;83.04
17855;BME280;9053;53.358;6.382;2024-03-25T04:42:55;100529.94;;;8.47;83.13
17855;BME280;9053;53.358;6.382;2024-03-25T04:45:21;100532.50;;;8.45;83.34
17855;BME280;9053;53.358;6.382;2024-03-25T04:47:48;100530.72;;;8.44;83.39
17855;BME280;9053;53.358;6.382;2024-03-25T04:50:14;100537.69;;;8.44;83.66
17855;BME280;9053;53.358;6.382;2024-03-25T04:52:40;100538.53;;;8.43;83.77
17855;BME280;9053;53.358;6.382;2024-03-25T04:55:06;100540.25;;;8.42;83.96
17855;BME280;9053;53.358;6.382;2024-03-25T04:57:32;100536.69;;;8.40;84.10
17855;BME280;9053;53.358;6.382;2024-03-25T05:00:01;100535.66;;;8.37;84.26
17855;BME280;9053;53.358;6.382;2024-03-25T05:02:27;100540.75;;;8.34;84.53
17855;BME280;9053;53.358;6.382;2024-03-25T05:04:55;100536.25;;;8.30;84.74
17855;BME280;9053;53.358;6.382;2024-03-25T05:07:21;100536.97;;;8.26;85.07
17855;BME280;9053;53.358;6.382;2024-03-25T05:09:47;100533.28;;;8.20;85.35
17855;BME280;9053;53.358;6.382;2024-03-25T05:12:13;100541.91;;;8.18;85.54
17855;BME280;9053;53.358;6.382;2024-03-25T05:14:39;100540.13;;;8.17;85.89
17855;BME280;9053;53.358;6.382;2024-03-25T05:17:08;100544.44;;;8.16;86.21
17855;BME280;9053;53.358;6.382;2024-03-25T05:19:34;100552.28;;;8.15;86.35
17855;BME280;9053;53.358;6.382;2024-03-25T05:22:00;100549.56;;;8.13;86.66
17855;BME280;9053;53.358;6.382;2024-03-25T05:24:26;100550.53;;;8.15;86.89
17855;BME280;9053;53.358;6.382;2024-03-25T05:26:52;100554.88;;;8.15;87.07
17855;BME280;9053;53.358;6.382;2024-03-25T05:29:18;100554.78;;;8.12;87.30
17855;BME280;9053;53.358;6.382;2024-03-25T05:31:56;100552.97;;;8.11;87.49
17855;BME280;9053;53.358;6.382;2024-03-25T05:34:26;100554.59;;;8.07;87.75
17855;BME280;9053;53.358;6.382;2024-03-25T05:36:55;100562.44;;;8.07;88.00
17855;BME280;9053;53.358;6.382;2024-03-25T05:39:21;100560.63;;;8.06;88.25
17855;BME280;9053;53.358;6.382;2024-03-25T05:41:48;100555.38;;;8.05;88.51
17855;BME280;9053;53.358;6.382;2024-03-25T05:44:14;100558.75;;;8.02;88.77
17855;BME280;9053;53.358;6.382;2024-03-25T05:46:41;100555.19;;;8.00;89.02
17855;BME280;9053;53.358;6.382;2024-03-25T05:49:07;100556.84;;;7.98;89.26
17855;BME280;9053;53.358;6.382;2024-03-25T05:51:36;100554.28;;;7.99;89.73
17855;BME280;9053;53.358;6.382;2024-03-25T05:54:02;100555.28;;;8.03;90.11
17855;BME280;9053;53.358;6.382;2024-03-25T05:56:28;100550.94;;;8.03;90.25
17855;BME280;9053;53.358;6.382;2024-03-25T05:58:56;100549.16;;;8.02;90.40
17855;BME280;9053;53.358;6.382;2024-03-25T06:01:24;100558.75;;;8.02;90.56
17855;BME280;9053;53.358;6.382;2024-03-25T06:03:50;100559.56;;;8.01;90.72
17855;BME280;9053;53.358;6.382;2024-03-25T06:06:17;100566.34;;;7.96;90.92
17855;BME280;9053;53.358;6.382;2024-03-25T06:08:45;100568.97;;;7.96;91.02
17855;BME280;9053;53.358;6.382;2024-03-25T06:11:12;100570.66;;;7.94;91.36
17855;BME280;9053;53.358;6.382;2024-03-25T06:13:41;100567.91;;;7.91;91.56
17855;BME280;9053;53.358;6.382;2024-03-25T06:16:07;100573.91;;;7.88;91.76
17855;BME280;9053;53.358;6.382;2024-03-25T06:18:33;100573.78;;;7.85;92.08
17855;BME280;9053;53.358;6.382;2024-03-25T06:20:59;100569.41;;;7.84;92.08
17855;BME280;9053;53.358;6.382;2024-03-25T06:23:27;100573.72;;;7.84;92.37
17855;BME280;9053;53.358;6.382;2024-03-25T06:25:57;100580.75;;;7.85;92.56
17855;BME280;9053;53.358;6.382;2024-03-25T06:28:24;100572.06;;;7.86;92.77
17855;BME280;9053;53.358;6.382;2024-03-25T06:30:51;100579.88;;;7.84;92.99
17855;BME280;9053;53.358;6.382;2024-03-25T06:33:32;100579.09;;;7.87;93.17
17855;BME280;9053;53.358;6.382;2024-03-25T06:36:14;100578.25;;;7.88;93.36
17855;BME280;9053;53.358;6.382;2024-03-25T06:38:40;100579.97;;;7.87;93.61
17855;BME280;9053;53.358;6.382;2024-03-25T06:41:08;100575.72;;;7.89;93.81
17855;BME280;9053;53.358;6.382;2024-03-25T06:43:35;100581.94;;;7.93;93.95
17855;BME280;9053;53.358;6.382;2024-03-25T06:46:01;100575.06;;;7.95;94.25
17855;BME280;9053;53.358;6.382;2024-03-25T06:48:28;100571.66;;;7.97;94.37
17855;BME280;9053;53.358;6.382;2024-03-25T06:50:54;100584.88;;;8.00;94.44
17855;BME280;9053;53.358;6.382;2024-03-25T06:53:21;100581.44;;;8.01;94.59
17855;BME280;9053;53.358;6.382;2024-03-25T06:55:51;100577.19;;;8.05;94.80
17855;BME280;9053;53.358;6.382;2024-03-25T06:58:21;100586.06;;;8.09;95.01
17855;BME280;9053;53.358;6.382;2024-03-25T07:00:48;100574.00;;;8.12;95.24
17855;BME280;9053;53.358;6.382;2024-03-25T07:03:15;100581.97;;;8.15;95.46
17855;BME280;9053;53.358;6.382;2024-03-25T07:05:41;100582.09;;;8.18;95.67
17855;BME280;9053;53.358;6.382;2024-03-25T07:08:07;100584.00;;;8.22;95.96
17855;BME280;9053;53.358;6.382;2024-03-25T07:10:33;100576.25;;;8.26;96.12
17855;BME280;9053;53.358;6.382;2024-03-25T07:13:01;100579.84;;;8.28;96.25
17855;BME280;9053;53.358;6.382;2024-03-25T07:15:31;100578.28;;;8.33;96.29
17855;BME280;9053;53.358;6.382;2024-03-25T07:17:57;100586.25;;;8.36;96.42
17855;BME280;9053;53.358;6.382;2024-03-25T07:20:23;100582.13;;;8.41;96.52
17855;BME280;9053;53.358;6.382;2024-03-25T07:22:50;100588.59;;;8.51;96.86
17855;BME280;9053;53.358;6.382;2024-03-25T07:25:16;100582.06;;;8.62;97.15
17855;BME280;9053;53.358;6.382;2024-03-25T07:27:42;100585.06;;;8.73;97.31
17855;BME280;9053;53.358;6.382;2024-03-25T07:30:08;100576.78;;;8.84;97.61
17855;BME280;9053;53.358;6.382;2024-03-25T07:32:37;100581.53;;;8.96;97.63
17855;BME280;9053;53.358;6.382;2024-03-25T07:35:04;100583.91;;;9.13;97.67
17855;BME280;9053;53.358;6.382;2024-03-25T07:37:30;100586.97;;;9.25;97.28
17855;BME280;9053;53.358;6.382;2024-03-25T07:39:56;100587.25;;;9.34;97.03
17855;BME280;9053;53.358;6.382;2024-03-25T07:42:22;100587.91;;;9.52;96.83
17855;BME280;9053;53.358;6.382;2024-03-25T07:44:48;100585.78;;;9.68;96.55
17855;BME280;9053;53.358;6.382;2024-03-25T07:47:14;100585.41;;;9.83;96.07
17855;BME280;9053;53.358;6.382;2024-03-25T07:49:43;100584.88;;;9.93;95.52
17855;BME280;9053;53.358;6.382;2024-03-25T07:52:10;100583.38;;;10.03;95.09
17855;BME280;9053;53.358;6.382;2024-03-25T07:54:40;100593.34;;;10.13;94.53
17855;BME280;9053;53.358;6.382;2024-03-25T07:57:06;100599.06;;;10.27;94.12
17855;BME280;9053;53.358;6.382;2024-03-25T07:59:32;100583.69;;;10.39;93.71
17855;BME280;9053;53.358;6.382;2024-03-25T08:01:58;100584.06;;;10.51;93.17
17855;BME280;9053;53.358;6.382;2024-03-25T08:04:24;100584.44;;;10.64;92.66
17855;BME280;9053;53.358;6.382;2024-03-25T08:06:53;100590.88;;;10.75;91.90
17855;BME280;9053;53.358;6.382;2024-03-25T08:09:19;100588.53;;;10.84;91.45
17855;BME280;9053;53.358;6.382;2024-03-25T08:11:47;100590.59;;;10.96;90.84
17855;BME280;9053;53.358;6.382;2024-03-25T08:14:14;100591.81;;;11.07;90.32
17855;BME280;9053;53.358;6.382;2024-03-25T08:16:40;100590.19;;;11.12;89.75
17855;BME280;9053;53.358;6.382;2024-03-25T08:19:07;100595.59;;;11.18;89.25
17855;BME280;9053;53.358;6.382;2024-03-25T08:21:33;100592.28;;;11.25;88.68
17855;BME280;9053;53.358;6.382;2024-03-25T08:24:01;100591.56;;;11.31;88.02
17855;BME280;9053;53.358;6.382;2024-03-25T08:26:27;100589.13;;;11.39;87.45
17855;BME280;9053;53.358;6.382;2024-03-25T08:28:54;100595.53;;;11.48;86.84
17855;BME280;9053;53.358;6.382;2024-03-25T08:31:20;100587.84;;;11.56;86.46
17855;BME280;9053;53.358;6.382;2024-03-25T08:33:46;100593.47;;;11.72;86.05
17855;BME280;9053;53.358;6.382;2024-03-25T08:36:12;100596.28;;;11.78;85.54
17855;BME280;9053;53.358;6.382;2024-03-25T08:38:38;100594.81;;;11.87;85.27
17855;BME280;9053;53.358;6.382;2024-03-25T08:41:07;100600.28;;;11.97;84.74
17855;BME280;9053;53.358;6.382;2024-03-25T08:43:33;100600.41;;;12.01;84.36
17855;BME280;9053;53.358;6.382;2024-03-25T08:45:59;100606.66;;;12.06;83.93
17855;BME280;9053;53.358;6.382;2024-03-25T08:48:25;100597.22;;;12.15;83.55
17855;BME280;9053;53.358;6.382;2024-03-25T08:50:51;100592.84;;;12.17;83.02
17855;BME280;9053;53.358;6.382;2024-03-25T08:53:17;100597.34;;;12.21;82.30
17855;BME280;9053;53.358;6.382;2024-03-25T08:55:46;100600.13;;;12.27;81.88
17855;BME280;9053;53.358;6.382;2024-03-25T08:58:16;100595.13;;;12.38;81.40
17855;BME280;9053;53.358;6.382;2024-03-25T09:00:42;100594.41;;;12.46;81.13
17855;BME280;9053;53.358;6.382;2024-03-25T09:03:09;100595.34;;;12.48;80.63
17855;BME280;9053;53.358;6.382;2024-03-25T09:05:35;100596.22;;;12.49;80.15
17855;BME280;9053;53.358;6.382;2024-03-25T09:08:01;100596.38;;;12.55;79.92
17855;BME280;9053;53.358;6.382;2024-03-25T09:10:28;100600.75;;;12.54;79.40
17855;BME280;9053;53.358;6.382;2024-03-25T09:13:10;100596.22;;;12.49;78.88
17855;BME280;9053;53.358;6.382;2024-03-25T09:15:39;100590.06;;;12.48;78.81
17855;BME280;9053;53.358;6.382;2024-03-25T09:18:06;100596.00;;;12.38;78.35
17855;BME280;9053;53.358;6.382;2024-03-25T09:20:32;100597.56;;;12.30;78.12
17855;BME280;9053;53.358;6.382;2024-03-25T09:22:58;100604.50;;;12.25;77.93
17855;BME280;9053;53.358;6.382;2024-03-25T09:25:24;100605.97;;;12.12;78.06
17855;BME280;9053;53.358;6.382;2024-03-25T09:27:50;100615.81;;;11.86;78.73
17855;BME280;9053;53.358;6.382;2024-03-25T09:30:17;100627.25;;;11.52;79.01
17855;BME280;9053;53.358;6.382;2024-03-25T09:32:46;100621.94;;;11.18;79.81
17855;BME280;9053;53.358;6.382;2024-03-25T09:35:12;100620.47;;;10.98;80.62
17855;BME280;9053;53.358;6.382;2024-03-25T09:37:38;100618.34;;;10.85;81.46
17855;BME280;9053;53.358;6.382;2024-03-25T09:40:07;100615.53;;;10.78;82.33
17855;BME280;9053;53.358;6.382;2024-03-25T09:42:36;100618.13;;;10.77;83.21
17855;BME280;9053;53.358;6.382;2024-03-25T09:45:08;100615.63;;;10.81;84.03
17855;BME280;9053;53.358;6.382;2024-03-25T09:47:35;100620.25;;;10.90;84.86
17855;BME280;9053;53.358;6.382;2024-03-25T09:50:06;100625.78;;;10.99;85.41
17855;BME280;9053;53.358;6.382;2024-03-25T09:52:33;100629.47;;;11.06;85.80
17855;BME280;9053;53.358;6.382;2024-03-25T09:54:59;100623.47;;;11.10;86.14
17855;BME280;9053;53.358;6.382;2024-03-25T09:57:25;100619.22;;;11.15;86.36
17855;BME280;9053;53.358;6.382;2024-03-25T09:59:52;100613.19;;;11.19;86.36
17855;BME280;9053;53.358;6.382;2024-03-25T10:02:19;100604.63;;;11.26;86.41
17855;BME280;9053;53.358;6.382;2024-03-25T10:04:48;100601.22;;;11.31;86.29
17855;BME280;9053;53.358;6.382;2024-03-25T10:07:21;100599.66;;;11.39;86.33
17855;BME280;9053;53.358;6.382;2024-03-25T10:09:48;100606.03;;;11.47;86.16
17855;BME280;9053;53.358;6.382;2024-03-25T10:12:15;100602.69;;;11.53;85.72
17855;BME280;9053;53.358;6.382;2024-03-25T10:14:43;100594.91;;;11.57;85.48
17855;BME280;9053;53.358;6.382;2024-03-25T10:17:09;100591.56;;;11.64;85.05
17855;BME280;9053;53.358;6.382;2024-03-25T10:19:36;100589.81;;;11.65;84.45
17855;BME280;9053;53.358;6.382;2024-03-25T10:22:03;100590.72;;;11.65;84.13
17855;BME280;9053;53.358;6.382;2024-03-25T10:24:39;100587.41;;;11.74;83.90
17855;BME280;9053;53.358;6.382;2024-03-25T10:27:10;100584.75;;;11.74;83.23
17855;BME280;9053;53.358;6.382;2024-03-25T10:29:37;100593.47;;;11.70;82.69
17855;BME280;9053;53.358;6.382;2024-03-25T10:32:04;100595.09;;;11.66;82.27
17855;BME280;9053;53.358;6.382;2024-03-25T10:34:30;100595.97;;;11.65;81.68
17855;BME280;9053;53.358;6.382;2024-03-25T10:36:57;100594.28;;;11.69;81.46
17855;BME280;9053;53.358;6.382;2024-03-25T10:39:27;100596.25;;;11.76;81.58
17855;BME280;9053;53.358;6.382;2024-03-25T10:42:02;100593.94;;;11.87;81.92
17855;BME280;9053;53.358;6.382;2024-03-25T10:44:34;100597.75;;;12.00;82.09
17855;BME280;9053;53.358;6.382;2024-03-25T10:47:01;100598.56;;;11.97;81.53
17855;BME280;9053;53.358;6.382;2024-03-25T10:49:33;100590.50;;;11.91;81.34
17855;BME280;9053;53.358;6.382;2024-03-25T10:52:01;100595.69;;;11.88;81.04
17855;BME280;9053;53.358;6.382;2024-03-25T10:54:30;100598.16;;;11.82;80.44
17855;BME280;9053;53.358;6.382;2024-03-25T10:56:58;100594.41;;;11.72;80.22
17855;BME280;9053;53.358;6.382;2024-03-25T10:59:27;100591.66;;;11.69;80.17
17855;BME280;9053;53.358;6.382;2024-03-25T11:01:55;100588.97;;;11.66;80.21
17855;BME280;9053;53.358;6.382;2024-03-25T11:04:23;100586.31;;;11.66;80.32
17855;BME280;9053;53.358;6.382;2024-03-25T11:06:50;100586.25;;;11.63;80.31
17855;BME280;9053;53.358;6.382;2024-03-25T11:09:22;100592.25;;;11.57;80.02
17855;BME280;9053;53.358;6.382;2024-03-25T11:11:50;100579.03;;;11.54;80.15
17855;BME280;9053;53.358;6.382;2024-03-25T11:14:16;100587.75;;;11.53;80.31
17855;BME280;9053;53.358;6.382;2024-03-25T11:16:51;100579.03;;;11.54;80.25
17855;BME280;9053;53.358;6.382;2024-03-25T11:19:17;100579.09;;;11.57;80.04
17855;BME280;9053;53.358;6.382;2024-03-25T11:21:44;100565.19;;;11.63;80.09
17855;BME280;9053;53.358;6.382;2024-03-25T11:24:10;100569.59;;;11.64;79.85
17855;BME280;9053;53.358;6.382;2024-03-25T11:26:41;100569.56;;;11.62;79.62
17855;BME280;9053;53.358;6.382;2024-03-25T11:29:08;100565.13;;;11.61;79.54
17855;BME280;9053;53.358;6.382;2024-03-25T11:31:34;100566.03;;;11.62;79.42
17855;BME280;9053;53.358;6.382;2024-03-25T11:34:06;100563.50;;;11.66;79.50
17855;BME280;9053;53.358;6.382;2024-03-25T11:36:33;100569.78;;;11.72;79.18
17855;BME280;9053;53.358;6.382;2024-03-25T11:38:59;100568.94;;;11.73;78.96
17855;BME280;9053;53.358;6.382;2024-03-25T11:41:26;100562.00;;;11.76;78.53
17855;BME280;9053;53.358;6.382;2024-03-25T11:43:52;100561.97;;;11.75;78.10
17855;BME280;9053;53.358;6.382;2024-03-25T11:46:19;100552.25;;;11.72;77.97
17855;BME280;9053;53.358;6.382;2024-03-25T11:48:45;100555.84;;;11.76;78.16
17855;BME280;9053;53.358;6.382;2024-03-25T11:51:16;100547.22;;;11.83;78.35
17855;BME280;9053;53.358;6.382;2024-03-25T11:53:42;100545.69;;;11.89;78.58
17855;BME280;9053;53.358;6.382;2024-03-25T11:56:09;100551.13;;;11.97;78.61
17855;BME280;9053;53.358;6.382;2024-03-25T11:58:36;100545.06;;;12.01;78.41
17855;BME280;9053;53.358;6.382;2024-03-25T12:01:03;100543.34;;;12.03;78.27
17855;BME280;9053;53.358;6.382;2024-03-25T12:03:29;100540.72;;;12.03;78.29
17855;BME280;9053;53.358;6.382;2024-03-25T12:05:56;100537.16;;;12.01;78.07
17855;BME280;9053;53.358;6.382;2024-03-25T12:08:25;100534.56;;;12.03;78.15
17855;BME280;9053;53.358;6.382;2024-03-25T12:10:51;100539.00;;;12.05;78.34
17855;BME280;9053;53.358;6.382;2024-03-25T12:13:33;100542.63;;;12.10;78.65
17855;BME280;9053;53.358;6.382;2024-03-25T12:15:59;100532.16;;;12.13;78.88
17855;BME280;9053;53.358;6.382;2024-03-25T12:18:25;100529.63;;;12.18;79.15
17855;BME280;9053;53.358;6.382;2024-03-25T12:20:51;100523.47;;;12.18;79.00
17855;BME280;9053;53.358;6.382;2024-03-25T12:23:18;100515.53;;;12.16;78.62
17855;BME280;9053;53.358;6.382;2024-03-25T12:25:50;100523.44;;;12.16;78.29
17855;BME280;9053;53.358;6.382;2024-03-25T12:28:16;100517.22;;;12.14;78.03
17855;BME280;9053;53.358;6.382;2024-03-25T12:30:49;100506.66;;;12.12;77.96
17855;BME280;9053;53.358;6.382;2024-03-25T12:33:16;100512.78;;;12.11;77.59
17855;BME280;9053;53.358;6.382;2024-03-25T12:35:45;100510.22;;;12.15;77.45
17855;BME280;9053;53.358;6.382;2024-03-25T12:38:21;100512.81;;;12.13;77.18
17855;BME280;9053;53.358;6.382;2024-03-25T12:40:51;100511.94;;;12.12;77.14
17855;BME280;9053;53.358;6.382;2024-03-25T12:43:17;100514.63;;;12.16;76.95
17855;BME280;9053;53.358;6.382;2024-03-25T12:45:43;100510.22;;;12.15;76.90
17855;BME280;9053;53.358;6.382;2024-03-25T12:48:10;100503.16;;;12.13;76.81
17855;BME280;9053;53.358;6.382;2024-03-25T12:50:36;100504.97;;;12.15;76.99
17855;BME280;9053;53.358;6.382;2024-03-25T12:53:02;100506.84;;;12.20;77.06
17855;BME280;9053;53.358;6.382;2024-03-25T12:55:29;100502.50;;;12.24;76.86
17855;BME280;9053;53.358;6.382;2024-03-25T12:57:57;100495.47;;;12.24;76.92
17855;BME280;9053;53.358;6.382;2024-03-25T13:00:24;100498.94;;;12.20;76.72
17855;BME280;9053;53.358;6.382;2024-03-25T13:02:50;100493.75;;;12.25;76.52
17855;BME280;9053;53.358;6.382;2024-03-25T13:05:16;100494.75;;;12.30;76.72
17855;BME280;9053;53.358;6.382;2024-03-25T13:07:42;100487.81;;;12.35;76.66
17855;BME280;9053;53.358;6.382;2024-03-25T13:10:08;100490.41;;;12.33;76.58